sensor_id;sensor_type;location;lat;lon;timestamp;P1;durP1;ratioP1;P2;durP2;ratioP2
8683;SDS011;4379;59.744;18.206;2022-12-18T00:01:20;17.77;;;13.13;;
8683;SDS011;4379;59.744;18.206;2022-12-18T00:03:54;13.90;;;12.50;;
8683;SDS011;4379;59.744;18.206;2022-12-18T00:06:25;17.10;;;11.93;;
8683;SDS011;4379;59.744;18.206;2022-12-18T00:08:54;15.53;;;12.47;;
8683;SDS011;4379;59.744;18.206;2022-12-18T00:11:24;17.00;;;11.83;;
8683;SDS011;4379;59.744;18.206;2022-12-18T00:13:53;16.27;;;12.10;;
8683;SDS011;4379;59.744;18.206;2022-12-18T00:16:23;16.43;;;12.20;;
8683;SDS011;4379;59.744;18.206;2022-12-18T00:18:52;16.83;;;12.60;;
8683;SDS011;4379;59.744;18.206;2022-12-18T00:21:21;18.67;;;13.43;;
8683;SDS011;4379;59.744;18.206;2022-12-18T00:23:48;15.70;;;12.93;;
8683;SDS011;4379;59.744;18.206;2022-12-18T00:26:20;15.70;;;12.57;;
8683;SDS011;4379;59.744;18.206;2022-12-18T00:28:50;16.77;;;12.60;;
8683;SDS011;4379;59.744;18.206;2022-12-18T00:31:19;18.63;;;12.90;;
8683;SDS011;4379;59.744;18.206;2022-12-18T00:33:48;18.87;;;12.93;;
8683;SDS011;4379;59.744;18.206;2022-12-18T00:36:25;15.10;;;12.13;;
8683;SDS011;4379;59.744;18.206;2022-12-18T00:38:55;20.00;;;13.70;;
8683;SDS011;4379;59.744;18.206;2022-12-18T00:41:24;19.27;;;13.00;;
8683;SDS011;4379;59.744;18.206;2022-12-18T00:44:11;18.53;;;13.13;;
8683;SDS011;4379;59.744;18.206;2022-12-18T00:46:40;16.07;;;12.97;;
8683;SDS011;4379;59.744;18.206;2022-12-18T00:49:09;17.80;;;12.60;;
8683;SDS011;4379;59.744;18.206;2022-12-18T00:51:41;15.07;;;11.60;;
8683;SDS011;4379;59.744;18.206;2022-12-18T00:54:10;14.77;;;11.43;;
8683;SDS011;4379;59.744;18.206;2022-12-18T00:56:38;19.17;;;12.47;;
8683;SDS011;4379;59.744;18.206;2022-12-18T00:59:14;14.30;;;12.17;;
8683;SDS011;4379;59.744;18.206;2022-12-18T01:01:42;14.17;;;11.70;;
8683;SDS011;4379;59.744;18.206;2022-12-18T01:04:10;18.67;;;13.60;;
8683;SDS011;4379;59.744;18.206;2022-12-18T01:06:37;15.90;;;12.33;;
8683;SDS011;4379;59.744;18.206;2022-12-18T01:09:05;15.80;;;11.70;;
8683;SDS011;4379;59.744;18.206;2022-12-18T01:11:32;15.93;;;12.13;;
8683;SDS011;4379;59.744;18.206;2022-12-18T01:14:00;15.00;;;11.87;;
8683;SDS011;4379;59.744;18.206;2022-12-18T01:16:27;18.43;;;12.50;;
8683;SDS011;4379;59.744;18.206;2022-12-18T01:18:54;17.03;;;12.67;;
8683;SDS011;4379;59.744;18.206;2022-12-18T01:21:22;15.37;;;11.73;;
8683;SDS011;4379;59.744;18.206;2022-12-18T01:23:51;15.43;;;11.63;;
8683;SDS011;4379;59.744;18.206;2022-12-18T01:26:22;16.07;;;12.60;;
8683;SDS011;4379;59.744;18.206;2022-12-18T01:28:50;13.93;;;11.70;;
8683;SDS011;4379;59.744;18.206;2022-12-18T01:31:22;12.77;;;11.40;;
8683;SDS011;4379;59.744;18.206;2022-12-18T01:33:53;14.23;;;11.63;;
8683;SDS011;4379;59.744;18.206;2022-12-18T01:36:26;13.10;;;11.50;;
8683;SDS011;4379;59.744;18.206;2022-12-18T01:39:01;14.87;;;11.00;;
8683;SDS011;4379;59.744;18.206;2022-12-18T01:41:33;13.90;;;10.83;;
8683;SDS011;4379;59.744;18.206;2022-12-18T01:49:54;13.37;;;10.73;;
8683;SDS011;4379;59.744;18.206;2022-12-18T01:52:22;14.03;;;11.37;;
8683;SDS011;4379;59.744;18.206;2022-12-18T01:54:52;13.00;;;10.90;;
8683;SDS011;4379;59.744;18.206;2022-12-18T01:57:21;12.20;;;10.70;;
8683;SDS011;4379;59.744;18.206;2022-12-18T01:59:50;12.10;;;10.83;;
8683;SDS011;4379;59.744;18.206;2022-12-18T02:02:20;11.10;;;10.00;;
8683;SDS011;4379;59.744;18.206;2022-12-18T02:04:48;11.63;;;10.30;;
8683;SDS011;4379;59.744;18.206;2022-12-18T02:10:41;11.33;;;10.20;;
8683;SDS011;4379;59.744;18.206;2022-12-18T02:18:44;11.07;;;9.93;;
8683;SDS011;4379;59.744;18.206;2022-12-18T02:27:14;11.47;;;10.10;;
8683;SDS011;4379;59.744;18.206;2022-12-18T02:29:51;11.87;;;9.97;;
8683;SDS011;4379;59.744;18.206;2022-12-18T02:32:25;10.23;;;9.23;;
8683;SDS011;4379;59.744;18.206;2022-12-18T02:34:59;10.90;;;9.90;;
8683;SDS011;4379;59.744;18.206;2022-12-18T02:37:28;12.33;;;9.83;;
8683;SDS011;4379;59.744;18.206;2022-12-18T02:39:57;10.80;;;9.43;;
8683;SDS011;4379;59.744;18.206;2022-12-18T02:42:25;11.47;;;9.80;;
8683;SDS011;4379;59.744;18.206;2022-12-18T02:44:54;10.97;;;9.73;;
8683;SDS011;4379;59.744;18.206;2022-12-18T02:47:22;10.10;;;8.97;;
8683;SDS011;4379;59.744;18.206;2022-12-18T02:55:39;12.93;;;9.47;;
8683;SDS011;4379;59.744;18.206;2022-12-18T03:00:59;10.80;;;9.50;;
8683;SDS011;4379;59.744;18.206;2022-12-18T03:03:38;9.63;;;8.67;;
8683;SDS011;4379;59.744;18.206;2022-12-18T03:06:38;10.20;;;8.53;;
8683;SDS011;4379;59.744;18.206;2022-12-18T03:09:10;12.87;;;9.03;;
8683;SDS011;4379;59.744;18.206;2022-12-18T03:11:47;11.77;;;9.27;;
8683;SDS011;4379;59.744;18.206;2022-12-18T03:14:39;10.93;;;9.80;;
8683;SDS011;4379;59.744;18.206;2022-12-18T03:17:09;10.43;;;9.43;;
8683;SDS011;4379;59.744;18.206;2022-12-18T03:19:43;11.60;;;10.03;;
8683;SDS011;4379;59.744;18.206;2022-12-18T03:22:12;13.07;;;9.83;;
8683;SDS011;4379;59.744;18.206;2022-12-18T03:24:41;10.90;;;9.70;;
8683;SDS011;4379;59.744;18.206;2022-12-18T03:27:10;10.90;;;9.37;;
8683;SDS011;4379;59.744;18.206;2022-12-18T03:29:42;10.67;;;9.57;;
8683;SDS011;4379;59.744;18.206;2022-12-18T03:32:21;12.17;;;9.53;;
8683;SDS011;4379;59.744;18.206;2022-12-18T03:34:53;12.47;;;9.40;;
8683;SDS011;4379;59.744;18.206;2022-12-18T03:37:24;11.57;;;9.80;;
8683;SDS011;4379;59.744;18.206;2022-12-18T03:39:52;11.90;;;9.43;;
8683;SDS011;4379;59.744;18.206;2022-12-18T03:47:34;10.40;;;9.37;;
8683;SDS011;4379;59.744;18.206;2022-12-18T03:50:20;11.60;;;9.77;;
8683;SDS011;4379;59.744;18.206;2022-12-18T03:53:23;10.40;;;9.30;;
8683;SDS011;4379;59.744;18.206;2022-12-18T03:55:59;10.97;;;9.87;;
8683;SDS011;4379;59.744;18.206;2022-12-18T03:58:28;11.40;;;10.27;;
8683;SDS011;4379;59.744;18.206;2022-12-18T04:00:59;11.57;;;10.33;;
8683;SDS011;4379;59.744;18.206;2022-12-18T04:03:28;11.30;;;10.10;;
8683;SDS011;4379;59.744;18.206;2022-12-18T04:05:58;10.90;;;9.80;;
8683;SDS011;4379;59.744;18.206;2022-12-18T04:08:27;11.37;;;9.97;;
8683;SDS011;4379;59.744;18.206;2022-12-18T04:10:55;13.10;;;10.03;;
8683;SDS011;4379;59.744;18.206;2022-12-18T04:13:29;10.00;;;9.00;;
8683;SDS011;4379;59.744;18.206;2022-12-18T04:15:59;11.03;;;9.37;;
8683;SDS011;4379;59.744;18.206;2022-12-18T04:18:27;12.90;;;9.57;;
8683;SDS011;4379;59.744;18.206;2022-12-18T04:20:54;10.17;;;8.83;;
8683;SDS011;4379;59.744;18.206;2022-12-18T04:23:22;9.73;;;8.60;;
8683;SDS011;4379;59.744;18.206;2022-12-18T04:25:49;10.73;;;9.73;;
8683;SDS011;4379;59.744;18.206;2022-12-18T04:28:16;11.87;;;9.60;;
8683;SDS011;4379;59.744;18.206;2022-12-18T04:30:47;13.53;;;9.50;;
8683;SDS011;4379;59.744;18.206;2022-12-18T04:33:15;9.03;;;8.13;;
8683;SDS011;4379;59.744;18.206;2022-12-18T04:35:45;10.87;;;9.60;;
8683;SDS011;4379;59.744;18.206;2022-12-18T04:38:12;9.83;;;8.83;;
8683;SDS011;4379;59.744;18.206;2022-12-18T04:40:39;10.23;;;9.23;;
8683;SDS011;4379;59.744;18.206;2022-12-18T04:43:07;12.20;;;9.53;;
8683;SDS011;4379;59.744;18.206;2022-12-18T04:45:35;10.27;;;8.80;;
8683;SDS011;4379;59.744;18.206;2022-12-18T04:48:02;10.27;;;9.27;;
8683;SDS011;4379;59.744;18.206;2022-12-18T04:50:30;10.17;;;9.17;;
8683;SDS011;4379;59.744;18.206;2022-12-18T04:52:57;10.23;;;8.87;;
8683;SDS011;4379;59.744;18.206;2022-12-18T04:55:25;10.70;;;9.03;;
8683;SDS011;4379;59.744;18.206;2022-12-18T04:57:53;10.13;;;9.10;;
8683;SDS011;4379;59.744;18.206;2022-12-18T05:00:20;10.13;;;8.53;;
8683;SDS011;4379;59.744;18.206;2022-12-18T05:02:48;9.23;;;8.33;;
8683;SDS011;4379;59.744;18.206;2022-12-18T05:05:15;10.30;;;9.30;;
8683;SDS011;4379;59.744;18.206;2022-12-18T05:07:43;10.17;;;8.97;;
8683;SDS011;4379;59.744;18.206;2022-12-18T05:10:11;11.93;;;9.47;;
8683;SDS011;4379;59.744;18.206;2022-12-18T05:12:38;11.90;;;9.07;;
8683;SDS011;4379;59.744;18.206;2022-12-18T05:15:30;11.50;;;9.13;;
8683;SDS011;4379;59.744;18.206;2022-12-18T05:17:58;10.50;;;9.33;;
8683;SDS011;4379;59.744;18.206;2022-12-18T05:20:26;10.57;;;9.50;;
8683;SDS011;4379;59.744;18.206;2022-12-18T05:22:54;10.63;;;9.60;;
8683;SDS011;4379;59.744;18.206;2022-12-18T05:25:22;10.13;;;9.13;;
8683;SDS011;4379;59.744;18.206;2022-12-18T05:27:50;10.03;;;9.07;;
8683;SDS011;4379;59.744;18.206;2022-12-18T05:30:17;9.70;;;8.83;;
8683;SDS011;4379;59.744;18.206;2022-12-18T05:32:44;9.77;;;8.87;;
8683;SDS011;4379;59.744;18.206;2022-12-18T05:35:12;11.50;;;9.77;;
8683;SDS011;4379;59.744;18.206;2022-12-18T05:37:39;10.63;;;9.00;;
8683;SDS011;4379;59.744;18.206;2022-12-18T05:40:09;10.83;;;9.33;;
8683;SDS011;4379;59.744;18.206;2022-12-18T05:42:36;10.60;;;8.90;;
8683;SDS011;4379;59.744;18.206;2022-12-18T05:45:04;10.40;;;9.30;;
8683;SDS011;4379;59.744;18.206;2022-12-18T05:47:32;11.70;;;9.57;;
8683;SDS011;4379;59.744;18.206;2022-12-18T05:50:00;10.87;;;8.97;;
8683;SDS011;4379;59.744;18.206;2022-12-18T05:52:27;9.33;;;8.17;;
8683;SDS011;4379;59.744;18.206;2022-12-18T05:54:54;9.87;;;8.20;;
8683;SDS011;4379;59.744;18.206;2022-12-18T05:57:22;9.30;;;8.40;;
8683;SDS011;4379;59.744;18.206;2022-12-18T05:59:49;9.83;;;8.93;;
8683;SDS011;4379;59.744;18.206;2022-12-18T06:02:16;10.63;;;8.70;;
8683;SDS011;4379;59.744;18.206;2022-12-18T06:04:44;9.57;;;8.50;;
8683;SDS011;4379;59.744;18.206;2022-12-18T06:07:11;10.97;;;8.53;;
8683;SDS011;4379;59.744;18.206;2022-12-18T06:09:38;9.43;;;8.43;;
8683;SDS011;4379;59.744;18.206;2022-12-18T06:12:05;9.80;;;8.80;;
8683;SDS011;4379;59.744;18.206;2022-12-18T06:14:33;11.47;;;9.23;;
8683;SDS011;4379;59.744;18.206;2022-12-18T06:17:00;9.20;;;8.30;;
8683;SDS011;4379;59.744;18.206;2022-12-18T06:19:28;9.33;;;8.43;;
8683;SDS011;4379;59.744;18.206;2022-12-18T06:21:55;9.37;;;8.47;;
8683;SDS011;4379;59.744;18.206;2022-12-18T06:24:24;9.77;;;8.87;;
8683;SDS011;4379;59.744;18.206;2022-12-18T06:26:51;9.87;;;8.50;;
8683;SDS011;4379;59.744;18.206;2022-12-18T06:29:18;9.43;;;8.50;;
8683;SDS011;4379;59.744;18.206;2022-12-18T06:31:45;9.90;;;8.90;;
8683;SDS011;4379;59.744;18.206;2022-12-18T06:34:13;9.90;;;8.93;;
8683;SDS011;4379;59.744;18.206;2022-12-18T06:36:40;9.27;;;8.37;;
8683;SDS011;4379;59.744;18.206;2022-12-18T06:39:07;9.47;;;8.57;;
8683;SDS011;4379;59.744;18.206;2022-12-18T06:41:34;10.10;;;8.43;;
8683;SDS011;4379;59.744;18.206;2022-12-18T06:44:02;9.70;;;8.70;;
8683;SDS011;4379;59.744;18.206;2022-12-18T06:46:29;9.00;;;8.10;;
8683;SDS011;4379;59.744;18.206;2022-12-18T06:48:56;9.97;;;8.73;;
8683;SDS011;4379;59.744;18.206;2022-12-18T06:51:23;9.77;;;8.50;;
8683;SDS011;4379;59.744;18.206;2022-12-18T06:53:51;9.10;;;8.33;;
8683;SDS011;4379;59.744;18.206;2022-12-18T06:56:18;10.57;;;9.30;;
8683;SDS011;4379;59.744;18.206;2022-12-18T06:58:45;10.50;;;9.43;;
8683;SDS011;4379;59.744;18.206;2022-12-18T07:01:13;10.20;;;8.97;;
8683;SDS011;4379;59.744;18.206;2022-12-18T07:03:40;10.37;;;9.23;;
8683;SDS011;4379;59.744;18.206;2022-12-18T07:06:16;13.73;;;9.07;;
8683;SDS011;4379;59.744;18.206;2022-12-18T07:08:45;10.57;;;9.27;;
8683;SDS011;4379;59.744;18.206;2022-12-18T07:11:13;10.30;;;8.73;;
8683;SDS011;4379;59.744;18.206;2022-12-18T07:13:41;9.37;;;8.50;;
8683;SDS011;4379;59.744;18.206;2022-12-18T07:16:10;9.27;;;8.43;;
8683;SDS011;4379;59.744;18.206;2022-12-18T07:18:50;9.83;;;8.90;;
8683;SDS011;4379;59.744;18.206;2022-12-18T07:21:18;10.27;;;9.23;;
8683;SDS011;4379;59.744;18.206;2022-12-18T07:23:46;9.70;;;8.50;;
8683;SDS011;4379;59.744;18.206;2022-12-18T07:26:15;9.90;;;8.80;;
8683;SDS011;4379;59.744;18.206;2022-12-18T07:28:44;9.57;;;8.63;;
8683;SDS011;4379;59.744;18.206;2022-12-18T07:31:13;11.97;;;8.23;;
8683;SDS011;4379;59.744;18.206;2022-12-18T07:33:42;11.33;;;9.37;;
8683;SDS011;4379;59.744;18.206;2022-12-18T07:36:10;9.73;;;8.30;;
8683;SDS011;4379;59.744;18.206;2022-12-18T07:38:37;11.07;;;8.43;;
8683;SDS011;4379;59.744;18.206;2022-12-18T07:41:06;8.93;;;8.13;;
8683;SDS011;4379;59.744;18.206;2022-12-18T07:43:35;11.73;;;8.70;;
8683;SDS011;4379;59.744;18.206;2022-12-18T07:46:04;9.07;;;8.17;;
8683;SDS011;4379;59.744;18.206;2022-12-18T07:48:32;9.80;;;8.73;;
8683;SDS011;4379;59.744;18.206;2022-12-18T07:51:00;10.40;;;9.30;;
8683;SDS011;4379;59.744;18.206;2022-12-18T07:53:31;9.37;;;8.47;;
8683;SDS011;4379;59.744;18.206;2022-12-18T07:55:59;13.70;;;9.07;;
8683;SDS011;4379;59.744;18.206;2022-12-18T07:58:51;10.30;;;9.30;;
8683;SDS011;4379;59.744;18.206;2022-12-18T08:01:18;9.50;;;8.50;;
8683;SDS011;4379;59.744;18.206;2022-12-18T08:03:46;10.13;;;9.10;;
8683;SDS011;4379;59.744;18.206;2022-12-18T08:06:15;9.70;;;8.83;;
8683;SDS011;4379;59.744;18.206;2022-12-18T08:08:42;10.30;;;9.20;;
8683;SDS011;4379;59.744;18.206;2022-12-18T08:11:10;11.37;;;9.27;;
8683;SDS011;4379;59.744;18.206;2022-12-18T08:13:37;9.87;;;8.90;;
8683;SDS011;4379;59.744;18.206;2022-12-18T08:16:05;10.03;;;9.07;;
8683;SDS011;4379;59.744;18.206;2022-12-18T08:18:34;11.20;;;8.70;;
8683;SDS011;4379;59.744;18.206;2022-12-18T08:21:09;9.13;;;8.30;;
8683;SDS011;4379;59.744;18.206;2022-12-18T08:23:42;9.67;;;8.77;;
8683;SDS011;4379;59.744;18.206;2022-12-18T08:26:10;9.30;;;8.43;;
8683;SDS011;4379;59.744;18.206;2022-12-18T08:28:38;9.30;;;8.40;;
8683;SDS011;4379;59.744;18.206;2022-12-18T08:31:06;10.57;;;9.00;;
8683;SDS011;4379;59.744;18.206;2022-12-18T08:33:34;10.63;;;8.60;;
8683;SDS011;4379;59.744;18.206;2022-12-18T08:36:04;10.07;;;9.20;;
8683;SDS011;4379;59.744;18.206;2022-12-18T08:38:32;14.17;;;9.30;;
8683;SDS011;4379;59.744;18.206;2022-12-18T08:43:27;9.93;;;8.83;;
8683;SDS011;4379;59.744;18.206;2022-12-18T08:46:13;10.40;;;9.23;;
8683;SDS011;4379;59.744;18.206;2022-12-18T08:48:43;10.00;;;8.90;;
8683;SDS011;4379;59.744;18.206;2022-12-18T08:51:11;9.97;;;8.97;;
8683;SDS011;4379;59.744;18.206;2022-12-18T08:53:39;10.50;;;9.60;;
8683;SDS011;4379;59.744;18.206;2022-12-18T08:56:07;9.80;;;8.87;;
8683;SDS011;4379;59.744;18.206;2022-12-18T08:58:34;9.93;;;8.93;;
8683;SDS011;4379;59.744;18.206;2022-12-18T09:01:05;10.23;;;9.10;;
8683;SDS011;4379;59.744;18.206;2022-12-18T09:03:35;10.97;;;8.97;;
8683;SDS011;4379;59.744;18.206;2022-12-18T09:06:03;12.77;;;9.70;;
8683;SDS011;4379;59.744;18.206;2022-12-18T09:08:35;11.00;;;9.80;;
8683;SDS011;4379;59.744;18.206;2022-12-18T09:11:03;10.90;;;9.40;;
8683;SDS011;4379;59.744;18.206;2022-12-18T09:13:31;13.60;;;9.63;;
8683;SDS011;4379;59.744;18.206;2022-12-18T09:15:58;10.03;;;9.13;;
8683;SDS011;4379;59.744;18.206;2022-12-18T09:18:25;9.93;;;8.90;;
8683;SDS011;4379;59.744;18.206;2022-12-18T09:20:52;10.80;;;9.63;;
8683;SDS011;4379;59.744;18.206;2022-12-18T09:23:20;10.73;;;9.63;;
8683;SDS011;4379;59.744;18.206;2022-12-18T09:25:47;12.40;;;10.13;;
8683;SDS011;4379;59.744;18.206;2022-12-18T09:28:16;10.67;;;9.63;;
8683;SDS011;4379;59.744;18.206;2022-12-18T09:30:45;11.10;;;10.00;;
8683;SDS011;4379;59.744;18.206;2022-12-18T09:33:15;11.00;;;10.00;;
8683;SDS011;4379;59.744;18.206;2022-12-18T09:35:43;10.70;;;9.67;;
8683;SDS011;4379;59.744;18.206;2022-12-18T09:38:12;11.07;;;9.97;;
8683;SDS011;4379;59.744;18.206;2022-12-18T09:40:45;10.50;;;9.50;;
8683;SDS011;4379;59.744;18.206;2022-12-18T09:43:17;10.80;;;9.73;;
8683;SDS011;4379;59.744;18.206;2022-12-18T09:45:55;12.83;;;9.60;;
8683;SDS011;4379;59.744;18.206;2022-12-18T09:48:31;13.53;;;10.03;;
8683;SDS011;4379;59.744;18.206;2022-12-18T09:51:18;11.67;;;10.37;;
8683;SDS011;4379;59.744;18.206;2022-12-18T09:53:52;10.80;;;9.80;;
8683;SDS011;4379;59.744;18.206;2022-12-18T09:56:23;12.13;;;10.93;;
8683;SDS011;4379;59.744;18.206;2022-12-18T09:59:01;12.03;;;10.57;;
8683;SDS011;4379;59.744;18.206;2022-12-18T10:01:30;13.30;;;10.10;;
8683;SDS011;4379;59.744;18.206;2022-12-18T10:04:09;11.40;;;10.20;;
8683;SDS011;4379;59.744;18.206;2022-12-18T10:06:42;11.23;;;10.20;;
8683;SDS011;4379;59.744;18.206;2022-12-18T10:09:32;11.23;;;10.30;;
8683;SDS011;4379;59.744;18.206;2022-12-18T10:14:46;11.23;;;10.10;;
8683;SDS011;4379;59.744;18.206;2022-12-18T10:17:28;10.83;;;9.83;;
8683;SDS011;4379;59.744;18.206;2022-12-18T10:20:27;11.10;;;10.07;;
8683;SDS011;4379;59.744;18.206;2022-12-18T10:23:45;10.27;;;9.13;;
8683;SDS011;4379;59.744;18.206;2022-12-18T10:26:14;10.50;;;9.57;;
8683;SDS011;4379;59.744;18.206;2022-12-18T10:28:43;10.80;;;9.80;;
8683;SDS011;4379;59.744;18.206;2022-12-18T10:31:16;12.40;;;9.23;;
8683;SDS011;4379;59.744;18.206;2022-12-18T10:33:51;11.63;;;9.40;;
8683;SDS011;4379;59.744;18.206;2022-12-18T10:36:23;9.53;;;8.77;;
8683;SDS011;4379;59.744;18.206;2022-12-18T10:38:51;10.03;;;9.10;;
8683;SDS011;4379;59.744;18.206;2022-12-18T10:43:51;10.17;;;9.07;;
8683;SDS011;4379;59.744;18.206;2022-12-18T10:46:53;10.07;;;9.00;;
8683;SDS011;4379;59.744;18.206;2022-12-18T10:49:35;10.27;;;9.37;;
8683;SDS011;4379;59.744;18.206;2022-12-18T10:52:21;10.60;;;9.43;;
8683;SDS011;4379;59.744;18.206;2022-12-18T10:54:51;10.17;;;9.07;;
8683;SDS011;4379;59.744;18.206;2022-12-18T10:57:31;10.53;;;9.63;;
8683;SDS011;4379;59.744;18.206;2022-12-18T11:02:54;10.53;;;9.53;;
8683;SDS011;4379;59.744;18.206;2022-12-18T11:07:52;9.33;;;8.43;;
8683;SDS011;4379;59.744;18.206;2022-12-18T11:10:22;10.47;;;9.33;;
8683;SDS011;4379;59.744;18.206;2022-12-18T11:13:19;10.03;;;9.30;;
8683;SDS011;4379;59.744;18.206;2022-12-18T11:15:47;10.67;;;9.67;;
8683;SDS011;4379;59.744;18.206;2022-12-18T11:18:16;12.93;;;9.47;;
8683;SDS011;4379;59.744;18.206;2022-12-18T11:20:53;10.80;;;9.47;;
8683;SDS011;4379;59.744;18.206;2022-12-18T11:23:24;13.97;;;9.97;;
8683;SDS011;4379;59.744;18.206;2022-12-18T11:25:53;10.67;;;9.60;;
8683;SDS011;4379;59.744;18.206;2022-12-18T11:28:47;10.70;;;9.70;;
8683;SDS011;4379;59.744;18.206;2022-12-18T11:31:26;10.20;;;9.20;;
8683;SDS011;4379;59.744;18.206;2022-12-18T11:36:57;9.90;;;8.90;;
8683;SDS011;4379;59.744;18.206;2022-12-18T11:44:47;9.13;;;8.23;;
8683;SDS011;4379;59.744;18.206;2022-12-18T11:47:28;9.73;;;8.83;;
8683;SDS011;4379;59.744;18.206;2022-12-18T11:50:30;9.47;;;8.50;;
8683;SDS011;4379;59.744;18.206;2022-12-18T11:52:58;9.23;;;8.40;;
8683;SDS011;4379;59.744;18.206;2022-12-18T11:58:27;9.50;;;8.50;;
8683;SDS011;4379;59.744;18.206;2022-12-18T12:01:15;8.77;;;7.83;;
8683;SDS011;4379;59.744;18.206;2022-12-18T12:20:15;9.10;;;8.20;;
8683;SDS011;4379;59.744;18.206;2022-12-18T12:22:55;9.13;;;7.80;;
8683;SDS011;4379;59.744;18.206;2022-12-18T12:25:37;10.57;;;8.80;;
8683;SDS011;4379;59.744;18.206;2022-12-18T12:28:15;9.93;;;8.93;;
8683;SDS011;4379;59.744;18.206;2022-12-18T12:34:21;8.77;;;7.43;;
8683;SDS011;4379;59.744;18.206;2022-12-18T12:37:03;8.40;;;7.47;;
8683;SDS011;4379;59.744;18.206;2022-12-18T12:39:35;9.07;;;7.87;;
8683;SDS011;4379;59.744;18.206;2022-12-18T12:42:04;10.63;;;8.57;;
8683;SDS011;4379;59.744;18.206;2022-12-18T12:45:00;9.37;;;8.40;;
8683;SDS011;4379;59.744;18.206;2022-12-18T12:47:35;9.53;;;8.53;;
8683;SDS011;4379;59.744;18.206;2022-12-18T12:50:13;8.80;;;7.87;;
8683;SDS011;4379;59.744;18.206;2022-12-18T12:52:45;8.43;;;7.73;;
8683;SDS011;4379;59.744;18.206;2022-12-18T12:55:23;8.83;;;7.83;;
8683;SDS011;4379;59.744;18.206;2022-12-18T13:00:31;9.47;;;8.07;;
8683;SDS011;4379;59.744;18.206;2022-12-18T13:03:19;10.50;;;7.57;;
8683;SDS011;4379;59.744;18.206;2022-12-18T13:09:15;10.47;;;7.40;;
8683;SDS011;4379;59.744;18.206;2022-12-18T13:11:45;7.67;;;6.97;;
8683;SDS011;4379;59.744;18.206;2022-12-18T13:14:38;7.23;;;6.50;;
8683;SDS011;4379;59.744;18.206;2022-12-18T13:17:17;6.83;;;6.17;;
8683;SDS011;4379;59.744;18.206;2022-12-18T13:20:03;10.97;;;7.13;;
8683;SDS011;4379;59.744;18.206;2022-12-18T13:22:46;8.43;;;6.80;;
8683;SDS011;4379;59.744;18.206;2022-12-18T13:28:13;9.67;;;6.80;;
8683;SDS011;4379;59.744;18.206;2022-12-18T13:48:37;7.30;;;5.53;;
8683;SDS011;4379;59.744;18.206;2022-12-18T13:51:08;4.57;;;4.17;;
8683;SDS011;4379;59.744;18.206;2022-12-18T13:53:48;4.90;;;4.40;;
8683;SDS011;4379;59.744;18.206;2022-12-18T13:56:18;6.13;;;4.57;;
8683;SDS011;4379;59.744;18.206;2022-12-18T14:01:59;7.83;;;4.10;;
8683;SDS011;4379;59.744;18.206;2022-12-18T14:04:33;4.50;;;4.10;;
8683;SDS011;4379;59.744;18.206;2022-12-18T14:09:58;5.13;;;3.63;;
8683;SDS011;4379;59.744;18.206;2022-12-18T14:12:47;4.03;;;3.43;;
8683;SDS011;4379;59.744;18.206;2022-12-18T14:15:47;5.60;;;3.70;;
8683;SDS011;4379;59.744;18.206;2022-12-18T14:18:25;4.40;;;3.50;;
8683;SDS011;4379;59.744;18.206;2022-12-18T14:20:59;4.97;;;3.43;;
8683;SDS011;4379;59.744;18.206;2022-12-18T14:23:35;4.03;;;3.00;;
8683;SDS011;4379;59.744;18.206;2022-12-18T14:32:05;3.60;;;2.60;;
8683;SDS011;4379;59.744;18.206;2022-12-18T14:34:40;4.53;;;2.30;;
8683;SDS011;4379;59.744;18.206;2022-12-18T14:37:11;4.93;;;2.47;;
8683;SDS011;4379;59.744;18.206;2022-12-18T14:39:51;2.80;;;2.50;;
8683;SDS011;4379;59.744;18.206;2022-12-18T14:42:20;8.07;;;2.87;;
8683;SDS011;4379;59.744;18.206;2022-12-18T14:44:47;4.80;;;2.40;;
8683;SDS011;4379;59.744;18.206;2022-12-18T14:47:34;4.53;;;2.23;;
8683;SDS011;4379;59.744;18.206;2022-12-18T14:50:02;3.13;;;1.90;;
8683;SDS011;4379;59.744;18.206;2022-12-18T14:52:29;3.10;;;2.20;;
8683;SDS011;4379;59.744;18.206;2022-12-18T14:54:58;4.43;;;2.23;;
8683;SDS011;4379;59.744;18.206;2022-12-18T14:57:27;5.07;;;2.70;;
8683;SDS011;4379;59.744;18.206;2022-12-18T15:00:04;3.97;;;2.30;;
8683;SDS011;4379;59.744;18.206;2022-12-18T15:02:34;3.43;;;2.13;;
8683;SDS011;4379;59.744;18.206;2022-12-18T15:07:50;2.60;;;2.10;;
8683;SDS011;4379;59.744;18.206;2022-12-18T15:10:22;6.43;;;2.17;;
8683;SDS011;4379;59.744;18.206;2022-12-18T15:20:39;3.77;;;2.33;;
8683;SDS011;4379;59.744;18.206;2022-12-18T15:23:24;3.20;;;1.90;;
8683;SDS011;4379;59.744;18.206;2022-12-18T15:26:01;2.90;;;1.70;;
8683;SDS011;4379;59.744;18.206;2022-12-18T15:28:34;3.67;;;1.90;;
8683;SDS011;4379;59.744;18.206;2022-12-18T15:36:16;5.53;;;2.30;;
8683;SDS011;4379;59.744;18.206;2022-12-18T15:38:52;3.93;;;2.23;;
8683;SDS011;4379;59.744;18.206;2022-12-18T15:41:30;2.30;;;1.80;;
8683;SDS011;4379;59.744;18.206;2022-12-18T15:44:02;2.67;;;1.80;;
8683;SDS011;4379;59.744;18.206;2022-12-18T15:46:47;3.53;;;1.80;;
8683;SDS011;4379;59.744;18.206;2022-12-18T15:49:15;5.97;;;1.77;;
8683;SDS011;4379;59.744;18.206;2022-12-18T15:51:42;3.57;;;1.50;;
8683;SDS011;4379;59.744;18.206;2022-12-18T15:54:12;2.53;;;1.90;;
8683;SDS011;4379;59.744;18.206;2022-12-18T15:56:42;5.23;;;2.07;;
8683;SDS011;4379;59.744;18.206;2022-12-18T15:59:28;6.37;;;2.00;;
8683;SDS011;4379;59.744;18.206;2022-12-18T16:01:56;4.87;;;2.00;;
8683;SDS011;4379;59.744;18.206;2022-12-18T16:04:24;3.33;;;2.10;;
8683;SDS011;4379;59.744;18.206;2022-12-18T16:06:52;2.80;;;1.70;;
8683;SDS011;4379;59.744;18.206;2022-12-18T16:09:39;2.73;;;1.50;;
8683;SDS011;4379;59.744;18.206;2022-12-18T16:12:10;3.93;;;2.07;;
8683;SDS011;4379;59.744;18.206;2022-12-18T16:14:45;4.40;;;1.90;;
8683;SDS011;4379;59.744;18.206;2022-12-18T16:17:13;3.53;;;1.67;;
8683;SDS011;4379;59.744;18.206;2022-12-18T16:19:41;3.03;;;2.07;;
8683;SDS011;4379;59.744;18.206;2022-12-18T16:22:18;5.77;;;2.27;;
8683;SDS011;4379;59.744;18.206;2022-12-18T16:24:49;3.83;;;1.90;;
8683;SDS011;4379;59.744;18.206;2022-12-18T16:27:18;7.23;;;1.67;;
8683;SDS011;4379;59.744;18.206;2022-12-18T16:29:45;6.43;;;1.73;;
8683;SDS011;4379;59.744;18.206;2022-12-18T16:32:17;3.60;;;1.63;;
8683;SDS011;4379;59.744;18.206;2022-12-18T16:34:46;2.77;;;1.30;;
8683;SDS011;4379;59.744;18.206;2022-12-18T16:37:14;5.83;;;1.90;;
8683;SDS011;4379;59.744;18.206;2022-12-18T16:39:44;2.73;;;1.50;;
8683;SDS011;4379;59.744;18.206;2022-12-18T16:42:12;2.57;;;1.70;;
8683;SDS011;4379;59.744;18.206;2022-12-18T16:44:43;4.67;;;1.73;;
8683;SDS011;4379;59.744;18.206;2022-12-18T16:47:11;5.53;;;1.63;;
8683;SDS011;4379;59.744;18.206;2022-12-18T16:49:40;3.57;;;1.70;;
8683;SDS011;4379;59.744;18.206;2022-12-18T16:52:11;3.33;;;1.80;;
8683;SDS011;4379;59.744;18.206;2022-12-18T16:54:39;4.13;;;1.67;;
8683;SDS011;4379;59.744;18.206;2022-12-18T16:57:08;4.47;;;1.50;;
8683;SDS011;4379;59.744;18.206;2022-12-18T16:59:38;4.77;;;1.57;;
8683;SDS011;4379;59.744;18.206;2022-12-18T17:02:08;3.03;;;1.53;;
8683;SDS011;4379;59.744;18.206;2022-12-18T17:04:42;3.70;;;1.50;;
8683;SDS011;4379;59.744;18.206;2022-12-18T17:07:10;6.53;;;1.57;;
8683;SDS011;4379;59.744;18.206;2022-12-18T17:09:38;4.67;;;1.43;;
8683;SDS011;4379;59.744;18.206;2022-12-18T17:12:06;3.40;;;1.53;;
8683;SDS011;4379;59.744;18.206;2022-12-18T17:14:35;4.50;;;1.60;;
8683;SDS011;4379;59.744;18.206;2022-12-18T17:17:03;5.33;;;1.37;;
8683;SDS011;4379;59.744;18.206;2022-12-18T17:19:48;3.93;;;1.67;;
8683;SDS011;4379;59.744;18.206;2022-12-18T17:22:16;3.27;;;1.40;;
8683;SDS011;4379;59.744;18.206;2022-12-18T17:24:45;2.70;;;1.43;;
8683;SDS011;4379;59.744;18.206;2022-12-18T17:27:12;2.67;;;1.57;;
8683;SDS011;4379;59.744;18.206;2022-12-18T17:29:40;2.07;;;1.60;;
8683;SDS011;4379;59.744;18.206;2022-12-18T17:32:13;7.03;;;1.50;;